sensor_id;sensor_type;location;lat;lon;timestamp;P1;durP1;ratioP1;P2;durP2;ratioP2
19883;SDS011;10104;50.732;10.174;2023-02-01T00:00:30;14.27;;;4.93;;
19883;SDS011;10104;50.732;10.174;2023-02-01T00:02:51;11.93;;;5.03;;
19883;SDS011;10104;50.732;10.174;2023-02-01T00:05:13;18.30;;;5.73;;
19883;SDS011;10104;50.732;10.174;2023-02-01T00:07:35;8.90;;;4.50;;
19883;SDS011;10104;50.732;10.174;2023-02-01T00:09:57;14.20;;;5.40;;
19883;SDS011;10104;50.732;10.174;2023-02-01T00:12:19;13.83;;;5.53;;
19883;SDS011;10104;50.732;10.174;2023-02-01T00:14:40;19.77;;;5.50;;
19883;SDS011;10104;50.732;10.174;2023-02-01T00:17:02;13.17;;;5.37;;
19883;SDS011;10104;50.732;10.174;2023-02-01T00:19:23;8.83;;;4.67;;
19883;SDS011;10104;50.732;10.174;2023-02-01T00:21:45;9.47;;;4.40;;
19883;SDS011;10104;50.732;10.174;2023-02-01T00:24:07;12.73;;;4.67;;
19883;SDS011;10104;50.732;10.174;2023-02-01T00:28:53;9.87;;;4.90;;
19883;SDS011;10104;50.732;10.174;2023-02-01T00:31:14;10.67;;;4.53;;
19883;SDS011;10104;50.732;10.174;2023-02-01T00:33:36;12.53;;;4.40;;
19883;SDS011;10104;50.732;10.174;2023-02-01T00:35:58;8.73;;;3.83;;
19883;SDS011;10104;50.732;10.174;2023-02-01T00:38:21;8.10;;;4.27;;
19883;SDS011;10104;50.732;10.174;2023-02-01T00:40:42;10.67;;;4.70;;
19883;SDS011;10104;50.732;10.174;2023-02-01T00:43:04;14.70;;;4.90;;
19883;SDS011;10104;50.732;10.174;2023-02-01T00:45:26;8.70;;;3.83;;
19883;SDS011;10104;50.732;10.174;2023-02-01T00:47:47;11.47;;;3.83;;
19883;SDS011;10104;50.732;10.174;2023-02-01T00:50:09;10.47;;;4.03;;
19883;SDS011;10104;50.732;10.174;2023-02-01T00:52:31;9.13;;;4.10;;
19883;SDS011;10104;50.732;10.174;2023-02-01T00:54:52;13.60;;;4.37;;
19883;SDS011;10104;50.732;10.174;2023-02-01T00:57:14;9.13;;;3.60;;
19883;SDS011;10104;50.732;10.174;2023-02-01T00:59:36;17.13;;;4.27;;
19883;SDS011;10104;50.732;10.174;2023-02-01T01:01:57;8.13;;;3.27;;
19883;SDS011;10104;50.732;10.174;2023-02-01T01:04:19;9.17;;;3.87;;
19883;SDS011;10104;50.732;10.174;2023-02-01T01:06:40;6.90;;;3.50;;
19883;SDS011;10104;50.732;10.174;2023-02-01T01:09:03;9.27;;;3.53;;
19883;SDS011;10104;50.732;10.174;2023-02-01T01:11:28;5.87;;;3.10;;
19883;SDS011;10104;50.732;10.174;2023-02-01T01:13:52;7.60;;;3.40;;
19883;SDS011;10104;50.732;10.174;2023-02-01T01:16:15;11.07;;;3.83;;
19883;SDS011;10104;50.732;10.174;2023-02-01T01:18:37;9.83;;;4.27;;
19883;SDS011;10104;50.732;10.174;2023-02-01T01:20:59;10.57;;;4.10;;
19883;SDS011;10104;50.732;10.174;2023-02-01T01:23:21;8.13;;;3.43;;
19883;SDS011;10104;50.732;10.174;2023-02-01T01:25:42;8.80;;;3.60;;
19883;SDS011;10104;50.732;10.174;2023-02-01T01:28:04;10.07;;;4.20;;
19883;SDS011;10104;50.732;10.174;2023-02-01T01:30:27;8.10;;;3.57;;
19883;SDS011;10104;50.732;10.174;2023-02-01T01:32:48;11.77;;;4.40;;
19883;SDS011;10104;50.732;10.174;2023-02-01T01:35:10;9.93;;;4.10;;
19883;SDS011;10104;50.732;10.174;2023-02-01T01:37:32;10.17;;;3.80;;
19883;SDS011;10104;50.732;10.174;2023-02-01T01:39:54;10.43;;;4.40;;
19883;SDS011;10104;50.732;10.174;2023-02-01T01:42:16;8.13;;;4.23;;
19883;SDS011;10104;50.732;10.174;2023-02-01T01:47:21;9.53;;;3.67;;
19883;SDS011;10104;50.732;10.174;2023-02-01T01:49:43;7.53;;;3.30;;
19883;SDS011;10104;50.732;10.174;2023-02-01T01:52:04;9.23;;;3.13;;
19883;SDS011;10104;50.732;10.174;2023-02-01T01:54:28;10.73;;;3.80;;
19883;SDS011;10104;50.732;10.174;2023-02-01T01:56:55;9.23;;;3.87;;
19883;SDS011;10104;50.732;10.174;2023-02-01T01:59:20;10.27;;;3.67;;
19883;SDS011;10104;50.732;10.174;2023-02-01T02:01:45;12.57;;;4.50;;
19883;SDS011;10104;50.732;10.174;2023-02-01T02:04:07;12.57;;;4.40;;
19883;SDS011;10104;50.732;10.174;2023-02-01T02:06:37;7.50;;;3.77;;
19883;SDS011;10104;50.732;10.174;2023-02-01T02:09:03;7.00;;;2.97;;
19883;SDS011;10104;50.732;10.174;2023-02-01T02:11:27;8.83;;;4.27;;
19883;SDS011;10104;50.732;10.174;2023-02-01T02:13:49;7.07;;;3.37;;
19883;SDS011;10104;50.732;10.174;2023-02-01T02:18:52;11.13;;;4.40;;
19883;SDS011;10104;50.732;10.174;2023-02-01T02:21:42;10.90;;;4.10;;
19883;SDS011;10104;50.732;10.174;2023-02-01T02:24:28;12.13;;;4.57;;
19883;SDS011;10104;50.732;10.174;2023-02-01T02:38:30;9.53;;;4.97;;
19883;SDS011;10104;50.732;10.174;2023-02-01T02:43:56;13.63;;;5.43;;
19883;SDS011;10104;50.732;10.174;2023-02-01T02:46:39;11.67;;;4.10;;
19883;SDS011;10104;50.732;10.174;2023-02-01T02:49:31;7.83;;;3.63;;
19883;SDS011;10104;50.732;10.174;2023-02-01T02:51:59;10.47;;;4.20;;
19883;SDS011;10104;50.732;10.174;2023-02-01T02:54:47;10.33;;;3.20;;
19883;SDS011;10104;50.732;10.174;2023-02-01T02:57:14;8.53;;;3.90;;
19883;SDS011;10104;50.732;10.174;2023-02-01T02:59:59;12.47;;;4.33;;
19883;SDS011;10104;50.732;10.174;2023-02-01T03:02:41;12.73;;;4.00;;
19883;SDS011;10104;50.732;10.174;2023-02-01T03:05:22;16.27;;;4.83;;
19883;SDS011;10104;50.732;10.174;2023-02-01T03:10:05;10.13;;;4.17;;
19883;SDS011;10104;50.732;10.174;2023-02-01T03:12:34;11.67;;;4.33;;
19883;SDS011;10104;50.732;10.174;2023-02-01T03:15:19;17.27;;;4.20;;
19883;SDS011;10104;50.732;10.174;2023-02-01T03:17:47;8.60;;;4.13;;
19883;SDS011;10104;50.732;10.174;2023-02-01T03:20:11;9.27;;;4.10;;
19883;SDS011;10104;50.732;10.174;2023-02-01T03:22:35;14.77;;;4.93;;
19883;SDS011;10104;50.732;10.174;2023-02-01T03:25:03;14.60;;;4.57;;
19883;SDS011;10104;50.732;10.174;2023-02-01T03:27:32;13.03;;;4.77;;
19883;SDS011;10104;50.732;10.174;2023-02-01T03:30:31;13.07;;;4.93;;
19883;SDS011;10104;50.732;10.174;2023-02-01T03:32:58;9.33;;;4.73;;
19883;SDS011;10104;50.732;10.174;2023-02-01T03:35:24;13.77;;;5.10;;
19883;SDS011;10104;50.732;10.174;2023-02-01T03:38:04;19.03;;;5.13;;
19883;SDS011;10104;50.732;10.174;2023-02-01T03:40:38;12.90;;;5.97;;
19883;SDS011;10104;50.732;10.174;2023-02-01T03:43:02;10.87;;;4.70;;
19883;SDS011;10104;50.732;10.174;2023-02-01T03:45:33;15.10;;;5.70;;
19883;SDS011;10104;50.732;10.174;2023-02-01T03:48:01;14.10;;;5.50;;
19883;SDS011;10104;50.732;10.174;2023-02-01T03:50:25;11.83;;;4.97;;
19883;SDS011;10104;50.732;10.174;2023-02-01T03:52:51;12.60;;;4.50;;
19883;SDS011;10104;50.732;10.174;2023-02-01T03:55:17;12.87;;;5.03;;
19883;SDS011;10104;50.732;10.174;2023-02-01T03:57:45;13.20;;;5.33;;
19883;SDS011;10104;50.732;10.174;2023-02-01T04:00:16;15.23;;;5.03;;
19883;SDS011;10104;50.732;10.174;2023-02-01T04:02:43;13.00;;;5.03;;
19883;SDS011;10104;50.732;10.174;2023-02-01T04:05:05;11.30;;;4.50;;
19883;SDS011;10104;50.732;10.174;2023-02-01T04:07:27;11.57;;;4.83;;
19883;SDS011;10104;50.732;10.174;2023-02-01T04:09:48;7.00;;;4.03;;
19883;SDS011;10104;50.732;10.174;2023-02-01T04:12:09;11.10;;;4.80;;
19883;SDS011;10104;50.732;10.174;2023-02-01T04:14:31;11.70;;;4.73;;
19883;SDS011;10104;50.732;10.174;2023-02-01T04:16:52;16.70;;;5.10;;
19883;SDS011;10104;50.732;10.174;2023-02-01T04:19:14;13.40;;;5.27;;
19883;SDS011;10104;50.732;10.174;2023-02-01T04:21:35;10.80;;;4.00;;
19883;SDS011;10104;50.732;10.174;2023-02-01T04:23:57;9.23;;;4.27;;
19883;SDS011;10104;50.732;10.174;2023-02-01T04:26:19;11.47;;;4.57;;
19883;SDS011;10104;50.732;10.174;2023-02-01T04:28:41;8.40;;;4.13;;
19883;SDS011;10104;50.732;10.174;2023-02-01T04:31:03;8.67;;;3.20;;
19883;SDS011;10104;50.732;10.174;2023-02-01T04:33:25;14.23;;;4.80;;
19883;SDS011;10104;50.732;10.174;2023-02-01T04:35:47;9.47;;;3.83;;
19883;SDS011;10104;50.732;10.174;2023-02-01T04:38:08;13.43;;;5.00;;
19883;SDS011;10104;50.732;10.174;2023-02-01T04:40:30;8.37;;;4.17;;
19883;SDS011;10104;50.732;10.174;2023-02-01T04:42:51;13.90;;;4.60;;
19883;SDS011;10104;50.732;10.174;2023-02-01T04:45:14;14.57;;;5.20;;
19883;SDS011;10104;50.732;10.174;2023-02-01T04:47:35;7.50;;;4.40;;
19883;SDS011;10104;50.732;10.174;2023-02-01T04:49:57;13.80;;;4.83;;
19883;SDS011;10104;50.732;10.174;2023-02-01T04:52:18;11.13;;;4.37;;
19883;SDS011;10104;50.732;10.174;2023-02-01T04:54:40;13.67;;;4.53;;
19883;SDS011;10104;50.732;10.174;2023-02-01T04:57:01;12.43;;;4.67;;
19883;SDS011;10104;50.732;10.174;2023-02-01T04:59:23;9.03;;;4.00;;
19883;SDS011;10104;50.732;10.174;2023-02-01T05:01:44;10.63;;;4.70;;
19883;SDS011;10104;50.732;10.174;2023-02-01T05:04:08;11.80;;;5.03;;
19883;SDS011;10104;50.732;10.174;2023-02-01T05:06:30;12.00;;;3.83;;
19883;SDS011;10104;50.732;10.174;2023-02-01T05:08:51;12.80;;;4.50;;
19883;SDS011;10104;50.732;10.174;2023-02-01T05:11:13;12.00;;;4.00;;
19883;SDS011;10104;50.732;10.174;2023-02-01T05:13:55;18.27;;;3.87;;
19883;SDS011;10104;50.732;10.174;2023-02-01T05:16:17;10.63;;;3.40;;
19883;SDS011;10104;50.732;10.174;2023-02-01T05:18:38;16.23;;;3.10;;
19883;SDS011;10104;50.732;10.174;2023-02-01T05:21:00;10.43;;;3.73;;
19883;SDS011;10104;50.732;10.174;2023-02-01T05:23:22;7.50;;;2.97;;
19883;SDS011;10104;50.732;10.174;2023-02-01T05:25:43;19.03;;;4.07;;
19883;SDS011;10104;50.732;10.174;2023-02-01T05:28:05;8.97;;;3.43;;
19883;SDS011;10104;50.732;10.174;2023-02-01T05:30:26;18.67;;;4.53;;
19883;SDS011;10104;50.732;10.174;2023-02-01T05:32:51;13.17;;;3.73;;
19883;SDS011;10104;50.732;10.174;2023-02-01T05:35:13;9.00;;;2.57;;
19883;SDS011;10104;50.732;10.174;2023-02-01T05:37:34;16.77;;;3.63;;
19883;SDS011;10104;50.732;10.174;2023-02-01T05:39:56;11.97;;;3.87;;
19883;SDS011;10104;50.732;10.174;2023-02-01T05:42:18;9.67;;;3.97;;
19883;SDS011;10104;50.732;10.174;2023-02-01T05:44:39;18.97;;;3.50;;
19883;SDS011;10104;50.732;10.174;2023-02-01T05:47:01;13.00;;;3.33;;
19883;SDS011;10104;50.732;10.174;2023-02-01T05:49:22;14.20;;;4.47;;
19883;SDS011;10104;50.732;10.174;2023-02-01T05:51:44;12.83;;;3.70;;
19883;SDS011;10104;50.732;10.174;2023-02-01T05:54:05;12.33;;;3.60;;
19883;SDS011;10104;50.732;10.174;2023-02-01T05:56:27;7.80;;;3.20;;
19883;SDS011;10104;50.732;10.174;2023-02-01T05:58:48;10.27;;;2.97;;
19883;SDS011;10104;50.732;10.174;2023-02-01T06:01:09;14.10;;;3.70;;
19883;SDS011;10104;50.732;10.174;2023-02-01T06:03:31;11.63;;;3.73;;
19883;SDS011;10104;50.732;10.174;2023-02-01T06:05:53;12.73;;;3.50;;
19883;SDS011;10104;50.732;10.174;2023-02-01T06:08:14;9.03;;;3.73;;
19883;SDS011;10104;50.732;10.174;2023-02-01T06:10:36;15.77;;;3.50;;
19883;SDS011;10104;50.732;10.174;2023-02-01T06:12:57;13.57;;;3.70;;
19883;SDS011;10104;50.732;10.174;2023-02-01T06:15:19;11.60;;;3.33;;
19883;SDS011;10104;50.732;10.174;2023-02-01T06:17:40;11.50;;;3.60;;
19883;SDS011;10104;50.732;10.174;2023-02-01T06:20:04;14.77;;;3.70;;
19883;SDS011;10104;50.732;10.174;2023-02-01T06:22:27;10.07;;;4.00;;
19883;SDS011;10104;50.732;10.174;2023-02-01T06:24:49;10.03;;;3.10;;
19883;SDS011;10104;50.732;10.174;2023-02-01T06:27:10;13.03;;;3.60;;
19883;SDS011;10104;50.732;10.174;2023-02-01T06:29:32;13.63;;;4.10;;
19883;SDS011;10104;50.732;10.174;2023-02-01T06:31:54;9.03;;;3.20;;
19883;SDS011;10104;50.732;10.174;2023-02-01T06:34:15;13.50;;;4.00;;
19883;SDS011;10104;50.732;10.174;2023-02-01T06:36:37;11.47;;;2.70;;
19883;SDS011;10104;50.732;10.174;2023-02-01T06:38:59;11.70;;;4.00;;
19883;SDS011;10104;50.732;10.174;2023-02-01T06:41:20;15.23;;;3.27;;
19883;SDS011;10104;50.732;10.174;2023-02-01T06:43:42;11.33;;;3.33;;
19883;SDS011;10104;50.732;10.174;2023-02-01T06:46:08;7.00;;;2.80;;
19883;SDS011;10104;50.732;10.174;2023-02-01T06:48:33;11.90;;;3.77;;
19883;SDS011;10104;50.732;10.174;2023-02-01T06:50:55;8.27;;;3.23;;
19883;SDS011;10104;50.732;10.174;2023-02-01T06:53:17;13.77;;;4.27;;
19883;SDS011;10104;50.732;10.174;2023-02-01T06:55:38;15.60;;;4.40;;
19883;SDS011;10104;50.732;10.174;2023-02-01T06:57:59;16.10;;;3.53;;
19883;SDS011;10104;50.732;10.174;2023-02-01T07:00:23;15.33;;;4.23;;
19883;SDS011;10104;50.732;10.174;2023-02-01T07:02:45;13.53;;;4.13;;
19883;SDS011;10104;50.732;10.174;2023-02-01T07:05:07;13.67;;;4.07;;
19883;SDS011;10104;50.732;10.174;2023-02-01T07:07:28;14.53;;;3.77;;
19883;SDS011;10104;50.732;10.174;2023-02-01T07:09:50;16.07;;;4.17;;
19883;SDS011;10104;50.732;10.174;2023-02-01T07:12:11;16.87;;;4.60;;
19883;SDS011;10104;50.732;10.174;2023-02-01T07:14:33;12.93;;;3.90;;
19883;SDS011;10104;50.732;10.174;2023-02-01T07:16:54;8.17;;;3.23;;
19883;SDS011;10104;50.732;10.174;2023-02-01T07:19:16;18.63;;;3.40;;
19883;SDS011;10104;50.732;10.174;2023-02-01T07:21:37;10.07;;;3.40;;
19883;SDS011;10104;50.732;10.174;2023-02-01T07:23:58;10.53;;;3.70;;
19883;SDS011;10104;50.732;10.174;2023-02-01T07:26:21;13.40;;;3.90;;
19883;SDS011;10104;50.732;10.174;2023-02-01T07:28:43;13.80;;;4.03;;
19883;SDS011;10104;50.732;10.174;2023-02-01T07:31:05;9.63;;;4.20;;
19883;SDS011;10104;50.732;10.174;2023-02-01T07:33:31;15.20;;;3.87;;
19883;SDS011;10104;50.732;10.174;2023-02-01T07:35:53;10.30;;;3.00;;
19883;SDS011;10104;50.732;10.174;2023-02-01T07:38:15;10.50;;;3.03;;
19883;SDS011;10104;50.732;10.174;2023-02-01T07:40:37;13.07;;;3.83;;
19883;SDS011;10104;50.732;10.174;2023-02-01T07:42:58;17.50;;;4.57;;
19883;SDS011;10104;50.732;10.174;2023-02-01T07:45:21;13.30;;;3.37;;
19883;SDS011;10104;50.732;10.174;2023-02-01T07:47:43;11.30;;;3.87;;
19883;SDS011;10104;50.732;10.174;2023-02-01T07:50:04;13.27;;;4.27;;
19883;SDS011;10104;50.732;10.174;2023-02-01T07:52:29;10.83;;;3.37;;
19883;SDS011;10104;50.732;10.174;2023-02-01T07:54:50;12.60;;;3.83;;
19883;SDS011;10104;50.732;10.174;2023-02-01T07:57:12;16.77;;;4.00;;
19883;SDS011;10104;50.732;10.174;2023-02-01T07:59:34;15.30;;;3.87;;
19883;SDS011;10104;50.732;10.174;2023-02-01T08:01:55;20.20;;;4.63;;
19883;SDS011;10104;50.732;10.174;2023-02-01T08:04:17;12.17;;;3.60;;
19883;SDS011;10104;50.732;10.174;2023-02-01T08:06:38;12.87;;;3.60;;
19883;SDS011;10104;50.732;10.174;2023-02-01T08:09:01;19.17;;;3.97;;
19883;SDS011;10104;50.732;10.174;2023-02-01T08:11:23;14.17;;;3.63;;
19883;SDS011;10104;50.732;10.174;2023-02-01T08:13:46;9.57;;;3.47;;
19883;SDS011;10104;50.732;10.174;2023-02-01T08:16:09;12.23;;;4.07;;
19883;SDS011;10104;50.732;10.174;2023-02-01T08:18:32;12.87;;;3.70;;
19883;SDS011;10104;50.732;10.174;2023-02-01T08:20:54;14.67;;;4.50;;
19883;SDS011;10104;50.732;10.174;2023-02-01T08:23:16;13.10;;;4.40;;
19883;SDS011;10104;50.732;10.174;2023-02-01T08:25:38;9.83;;;3.57;;
19883;SDS011;10104;50.732;10.174;2023-02-01T08:28:00;11.93;;;3.57;;
19883;SDS011;10104;50.732;10.174;2023-02-01T08:30:21;14.90;;;3.23;;
19883;SDS011;10104;50.732;10.174;2023-02-01T08:32:43;15.00;;;4.30;;
19883;SDS011;10104;50.732;10.174;2023-02-01T08:35:05;14.77;;;3.90;;
19883;SDS011;10104;50.732;10.174;2023-02-01T08:37:26;15.27;;;3.90;;
19883;SDS011;10104;50.732;10.174;2023-02-01T08:39:48;9.20;;;2.93;;
19883;SDS011;10104;50.732;10.174;2023-02-01T08:42:11;10.67;;;3.67;;
19883;SDS011;10104;50.732;10.174;2023-02-01T08:44:51;9.63;;;3.60;;
19883;SDS011;10104;50.732;10.174;2023-02-01T08:47:13;9.63;;;3.73;;
19883;SDS011;10104;50.732;10.174;2023-02-01T08:49:34;11.87;;;3.90;;
19883;SDS011;10104;50.732;10.174;2023-02-01T08:51:56;13.33;;;4.27;;
19883;SDS011;10104;50.732;10.174;2023-02-01T08:54:23;14.17;;;4.60;;
19883;SDS011;10104;50.732;10.174;2023-02-01T08:56:45;12.77;;;4.20;;
19883;SDS011;10104;50.732;10.174;2023-02-01T08:59:06;9.63;;;3.03;;
19883;SDS011;10104;50.732;10.174;2023-02-01T09:01:28;14.07;;;3.90;;
19883;SDS011;10104;50.732;10.174;2023-02-01T09:03:49;11.17;;;4.10;;
19883;SDS011;10104;50.732;10.174;2023-02-01T09:06:12;13.43;;;3.73;;
19883;SDS011;10104;50.732;10.174;2023-02-01T09:08:34;9.97;;;4.30;;
19883;SDS011;10104;50.732;10.174;2023-02-01T09:11:04;16.37;;;4.33;;
19883;SDS011;10104;50.732;10.174;2023-02-01T09:13:28;18.37;;;4.80;;
19883;SDS011;10104;50.732;10.174;2023-02-01T09:15:50;16.67;;;4.87;;
19883;SDS011;10104;50.732;10.174;2023-02-01T09:18:12;13.37;;;4.50;;
19883;SDS011;10104;50.732;10.174;2023-02-01T09:20:33;12.23;;;3.97;;
19883;SDS011;10104;50.732;10.174;2023-02-01T09:22:55;10.07;;;4.23;;
19883;SDS011;10104;50.732;10.174;2023-02-01T09:25:16;11.53;;;4.50;;
19883;SDS011;10104;50.732;10.174;2023-02-01T09:27:38;13.90;;;4.40;;
19883;SDS011;10104;50.732;10.174;2023-02-01T09:30:00;10.10;;;3.60;;
19883;SDS011;10104;50.732;10.174;2023-02-01T09:32:21;15.27;;;4.23;;
19883;SDS011;10104;50.732;10.174;2023-02-01T09:34:44;12.73;;;3.90;;
19883;SDS011;10104;50.732;10.174;2023-02-01T09:37:05;13.37;;;3.67;;
19883;SDS011;10104;50.732;10.174;2023-02-01T09:39:27;11.87;;;3.50;;
19883;SDS011;10104;50.732;10.174;2023-02-01T09:41:54;16.17;;;4.30;;
19883;SDS011;10104;50.732;10.174;2023-02-01T09:47:04;14.00;;;4.33;;
19883;SDS011;10104;50.732;10.174;2023-02-01T09:49:33;14.90;;;4.83;;
19883;SDS011;10104;50.732;10.174;2023-02-01T09:52:04;10.27;;;3.77;;
19883;SDS011;10104;50.732;10.174;2023-02-01T09:54:29;17.27;;;4.20;;
19883;SDS011;10104;50.732;10.174;2023-02-01T09:57:08;13.53;;;4.23;;
19883;SDS011;10104;50.732;10.174;2023-02-01T09:59:50;10.67;;;3.20;;
19883;SDS011;10104;50.732;10.174;2023-02-01T10:02:26;17.03;;;3.80;;
19883;SDS011;10104;50.732;10.174;2023-02-01T10:04:49;10.33;;;3.73;;
19883;SDS011;10104;50.732;10.174;2023-02-01T10:07:23;14.73;;;3.37;;
19883;SDS011;10104;50.732;10.174;2023-02-01T10:09:58;13.27;;;3.50;;
19883;SDS011;10104;50.732;10.174;2023-02-01T10:26:19;10.40;;;3.10;;
19883;SDS011;10104;50.732;10.174;2023-02-01T10:28:43;18.23;;;3.70;;
19883;SDS011;10104;50.732;10.174;2023-02-01T10:31:08;16.10;;;3.57;;
19883;SDS011;10104;50.732;10.174;2023-02-01T10:33:34;8.67;;;3.40;;
19883;SDS011;10104;50.732;10.174;2023-02-01T10:36:10;10.93;;;3.97;;
19883;SDS011;10104;50.732;10.174;2023-02-01T10:38:38;11.00;;;3.50;;
19883;SDS011;10104;50.732;10.174;2023-02-01T10:41:04;11.00;;;4.13;;
19883;SDS011;10104;50.732;10.174;2023-02-01T10:43:33;11.10;;;3.40;;
19883;SDS011;10104;50.732;10.174;2023-02-01T10:45:55;9.47;;;3.90;;
19883;SDS011;10104;50.732;10.174;2023-02-01T10:48:16;13.87;;;3.40;;
19883;SDS011;10104;50.732;10.174;2023-02-01T10:50:39;12.97;;;3.30;;
19883;SDS011;10104;50.732;10.174;2023-02-01T10:55:52;10.20;;;3.40;;
19883;SDS011;10104;50.732;10.174;2023-02-01T10:58:16;12.13;;;3.73;;
19883;SDS011;10104;50.732;10.174;2023-02-01T11:01:03;10.83;;;3.43;;
19883;SDS011;10104;50.732;10.174;2023-02-01T11:06:00;14.93;;;4.20;;
19883;SDS011;10104;50.732;10.174;2023-02-01T11:08:25;8.33;;;3.63;;
19883;SDS011;10104;50.732;10.174;2023-02-01T11:10:46;9.43;;;3.50;;
19883;SDS011;10104;50.732;10.174;2023-02-01T11:13:13;11.97;;;3.97;;
19883;SDS011;10104;50.732;10.174;2023-02-01T11:15:39;8.40;;;3.93;;
19883;SDS011;10104;50.732;10.174;2023-02-01T11:18:16;11.90;;;3.47;;
19883;SDS011;10104;50.732;10.174;2023-02-01T11:20:39;10.93;;;3.60;;
19883;SDS011;10104;50.732;10.174;2023-02-01T11:23:03;9.17;;;3.80;;
19883;SDS011;10104;50.732;10.174;2023-02-01T11:25:24;14.93;;;4.43;;
19883;SDS011;10104;50.732;10.174;2023-02-01T11:27:48;7.00;;;3.30;;
19883;SDS011;10104;50.732;10.174;2023-02-01T11:30:16;13.53;;;3.40;;
19883;SDS011;10104;50.732;10.174;2023-02-01T11:32:40;11.97;;;3.80;;
19883;SDS011;10104;50.732;10.174;2023-02-01T11:35:02;11.43;;;3.50;;
19883;SDS011;10104;50.732;10.174;2023-02-01T11:37:30;9.63;;;3.83;;
19883;SDS011;10104;50.732;10.174;2023-02-01T11:39:56;8.27;;;3.43;;
19883;SDS011;10104;50.732;10.174;2023-02-01T11:42:19;8.17;;;3.30;;
19883;SDS011;10104;50.732;10.174;2023-02-01T11:44:45;12.23;;;3.87;;
19883;SDS011;10104;50.732;10.174;2023-02-01T11:49:50;9.67;;;3.53;;
19883;SDS011;10104;50.732;10.174;2023-02-01T11:52:27;12.13;;;3.60;;
19883;SDS011;10104;50.732;10.174;2023-02-01T11:55:01;12.00;;;3.47;;
19883;SDS011;10104;50.732;10.174;2023-02-01T12:03:37;9.43;;;3.33;;
19883;SDS011;10104;50.732;10.174;2023-02-01T12:22:52;11.00;;;3.43;;
19883;SDS011;10104;50.732;10.174;2023-02-01T12:31:35;11.80;;;3.57;;
19883;SDS011;10104;50.732;10.174;2023-02-01T12:34:05;13.07;;;3.47;;
19883;SDS011;10104;50.732;10.174;2023-02-01T12:36:42;9.77;;;3.07;;
19883;SDS011;10104;50.732;10.174;2023-02-01T12:42:09;11.07;;;3.37;;
19883;SDS011;10104;50.732;10.174;2023-02-01T12:47:24;11.87;;;3.67;;
19883;SDS011;10104;50.732;10.174;2023-02-01T12:50:02;10.10;;;2.90;;
19883;SDS011;10104;50.732;10.174;2023-02-01T12:55:14;11.97;;;3.43;;
19883;SDS011;10104;50.732;10.174;2023-02-01T12:57:42;14.63;;;3.70;;
19883;SDS011;10104;50.732;10.174;2023-02-01T13:03:01;9.10;;;3.03;;
19883;SDS011;10104;50.732;10.174;2023-02-01T13:05:56;12.10;;;3.23;;
19883;SDS011;10104;50.732;10.174;2023-02-01T13:08:36;10.97;;;3.47;;
19883;SDS011;10104;50.732;10.174;2023-02-01T13:11:04;10.87;;;2.93;;
19883;SDS011;10104;50.732;10.174;2023-02-01T13:13:44;12.23;;;3.63;;
19883;SDS011;10104;50.732;10.174;2023-02-01T13:16:15;7.57;;;2.80;;
19883;SDS011;10104;50.732;10.174;2023-02-01T13:18:44;11.20;;;3.63;;
19883;SDS011;10104;50.732;10.174;2023-02-01T13:21:14;11.27;;;2.97;;
19883;SDS011;10104;50.732;10.174;2023-02-01T13:23:39;10.73;;;3.30;;
19883;SDS011;10104;50.732;10.174;2023-02-01T13:26:03;8.70;;;3.13;;
19883;SDS011;10104;50.732;10.174;2023-02-01T13:28:26;8.20;;;2.90;;
19883;SDS011;10104;50.732;10.174;2023-02-01T13:34:22;14.37;;;3.17;;
19883;SDS011;10104;50.732;10.174;2023-02-01T13:40:00;8.17;;;3.13;;
19883;SDS011;10104;50.732;10.174;2023-02-01T13:42:45;8.00;;;2.83;;
19883;SDS011;10104;50.732;10.174;2023-02-01T13:45:18;10.13;;;2.93;;
19883;SDS011;10104;50.732;10.174;2023-02-01T13:47:44;9.77;;;3.00;;
19883;SDS011;10104;50.732;10.174;2023-02-01T13:52:39;7.90;;;2.70;;
19883;SDS011;10104;50.732;10.174;2023-02-01T13:57:42;9.77;;;2.67;;
19883;SDS011;10104;50.732;10.174;2023-02-01T14:00:07;8.73;;;1.97;;
19883;SDS011;10104;50.732;10.174;2023-02-01T14:21:08;9.20;;;2.60;;
19883;SDS011;10104;50.732;10.174;2023-02-01T14:23:46;7.73;;;2.27;;
19883;SDS011;10104;50.732;10.174;2023-02-01T14:26:17;6.40;;;1.87;;
19883;SDS011;10104;50.732;10.174;2023-02-01T14:28:51;4.03;;;1.73;;
19883;SDS011;10104;50.732;10.174;2023-02-01T14:31:17;6.80;;;2.17;;
19883;SDS011;10104;50.732;10.174;2023-02-01T14:33:55;9.77;;;2.30;;
19883;SDS011;10104;50.732;10.174;2023-02-01T14:36:20;11.80;;;2.40;;
19883;SDS011;10104;50.732;10.174;2023-02-01T14:38:47;7.90;;;2.20;;
19883;SDS011;10104;50.732;10.174;2023-02-01T14:41:30;8.57;;;2.57;;
19883;SDS011;10104;50.732;10.174;2023-02-01T14:49:28;7.43;;;1.90;;
19883;SDS011;10104;50.732;10.174;2023-02-01T14:51:52;7.67;;;2.50;;
19883;SDS011;10104;50.732;10.174;2023-02-01T14:54:14;12.33;;;2.73;;
19883;SDS011;10104;50.732;10.174;2023-02-01T14:56:36;11.43;;;2.23;;
19883;SDS011;10104;50.732;10.174;2023-02-01T14:59:00;12.43;;;3.37;;
19883;SDS011;10104;50.732;10.174;2023-02-01T15:01:32;9.27;;;1.90;;
19883;SDS011;10104;50.732;10.174;2023-02-01T15:04:05;6.13;;;2.50;;
19883;SDS011;10104;50.732;10.174;2023-02-01T15:06:32;11.50;;;2.30;;
19883;SDS011;10104;50.732;10.174;2023-02-01T15:09:02;7.67;;;2.40;;
19883;SDS011;10104;50.732;10.174;2023-02-01T15:11:53;4.93;;;2.13;;
19883;SDS011;10104;50.732;10.174;2023-02-01T15:14:46;10.37;;;2.50;;
19883;SDS011;10104;50.732;10.174;2023-02-01T15:17:23;8.33;;;3.10;;
19883;SDS011;10104;50.732;10.174;2023-02-01T15:19:56;10.30;;;2.70;;
19883;SDS011;10104;50.732;10.174;2023-02-01T15:22:19;9.80;;;3.03;;
19883;SDS011;10104;50.732;10.174;2023-02-01T15:24:41;9.33;;;2.40;;
19883;SDS011;10104;50.732;10.174;2023-02-01T15:27:03;8.60;;;2.23;;
19883;SDS011;10104;50.732;10.174;2023-02-01T15:29:26;3.37;;;2.47;;
19883;SDS011;10104;50.732;10.174;2023-02-01T15:31:53;8.50;;;2.73;;
19883;SDS011;10104;50.732;10.174;2023-02-01T15:34:15;8.47;;;2.40;;
19883;SDS011;10104;50.732;10.174;2023-02-01T15:36:38;8.20;;;2.40;;
19883;SDS011;10104;50.732;10.174;2023-02-01T15:39:11;8.10;;;3.17;;
19883;SDS011;10104;50.732;10.174;2023-02-01T15:41:45;10.03;;;3.10;;
19883;SDS011;10104;50.732;10.174;2023-02-01T15:44:20;6.53;;;2.07;;
19883;SDS011;10104;50.732;10.174;2023-02-01T15:46:49;7.63;;;2.43;;
19883;SDS011;10104;50.732;10.174;2023-02-01T15:49:17;7.93;;;2.17;;
19883;SDS011;10104;50.732;10.174;2023-02-01T15:51:44;7.03;;;2.33;;
19883;SDS011;10104;50.732;10.174;2023-02-01T15:54:13;7.53;;;2.60;;
19883;SDS011;10104;50.732;10.174;2023-02-01T15:56:40;5.83;;;1.97;;
19883;SDS011;10104;50.732;10.174;2023-02-01T15:59:03;8.10;;;1.73;;
19883;SDS011;10104;50.732;10.174;2023-02-01T16:01:27;8.77;;;2.07;;
19883;SDS011;10104;50.732;10.174;2023-02-01T16:03:50;6.93;;;2.03;;
19883;SDS011;10104;50.732;10.174;2023-02-01T16:08:48;6.87;;;2.07;;
19883;SDS011;10104;50.732;10.174;2023-02-01T16:13:33;7.30;;;2.50;;
19883;SDS011;10104;50.732;10.174;2023-02-01T16:15:55;6.73;;;2.10;;
19883;SDS011;10104;50.732;10.174;2023-02-01T16:18:16;5.07;;;1.90;;
19883;SDS011;10104;50.732;10.174;2023-02-01T16:20:39;5.17;;;2.17;;
19883;SDS011;10104;50.732;10.174;2023-02-01T16:23:03;13.27;;;2.73;;
19883;SDS011;10104;50.732;10.174;2023-02-01T16:25:25;3.47;;;1.57;;